Terminal Aerodrome Forecast
Issued by NWS

Home | Current Version | Previous Version | Graphics & Text | Print | Product List | Glossary On
Versions: 1 2 3 4 5 6 7 8 9 10 11 12 13 14 15 16 17 18 19 20 21 22
000
FTUS43 KLSX 271000 AAC
TAFSUS
TAF AMD
KSUS 271009Z 2710/2806 01008KT 5SM -SN SCT015 OVC050
     FM271200 35012KT P6SM BKN050
     FM280000 05005KT P6SM SCT100=

USA.gov is the U.S. government's official web portal to all federal, state and local government web resources and services.